createdAt,value
2022-11-25T00:00:17.086Z,3.07
2022-11-25T00:02:46.050Z,3.30
2022-11-25T00:05:13.580Z,2.80
2022-11-25T00:07:41.108Z,2.93
2022-11-25T00:10:08.896Z,3.27
2022-11-25T00:12:36.385Z,3.00
2022-11-25T00:15:04.006Z,2.77
2022-11-25T00:17:31.474Z,3.07
2022-11-25T00:20:01.659Z,2.80
2022-11-25T00:22:29.113Z,2.80
2022-11-25T00:24:56.523Z,3.30
2022-11-25T00:27:23.956Z,4.07
2022-11-25T00:29:51.415Z,3.60
2022-11-25T00:32:19.045Z,3.50
2022-11-25T00:34:46.513Z,3.23
2022-11-25T00:37:15.333Z,3.50
2022-11-25T00:39:42.910Z,3.73
2022-11-25T00:42:28.360Z,3.93
2022-11-25T00:44:55.758Z,3.77
2022-11-25T00:47:23.360Z,4.03
2022-11-25T00:49:52.089Z,4.27
2022-11-25T00:52:21.614Z,3.97
2022-11-25T00:54:49.642Z,4.20
2022-11-25T00:57:17.620Z,3.93
2022-11-25T00:59:45.491Z,4.13
2022-11-25T01:02:13.669Z,4.03
2022-11-25T01:04:41.353Z,3.80
2022-11-25T01:07:09.096Z,3.33
2022-11-25T01:09:38.540Z,3.83
2022-11-25T01:12:06.311Z,4.00
2022-11-25T01:14:34.968Z,3.87
2022-11-25T01:17:04.314Z,3.50
2022-11-25T01:19:33.610Z,3.90
2022-11-25T01:22:01.594Z,3.93
2022-11-25T01:24:29.042Z,3.90
2022-11-25T01:26:57.838Z,3.70
2022-11-25T01:29:25.335Z,4.10
2022-11-25T01:31:55.751Z,3.47
2022-11-25T01:34:24.378Z,3.87
2022-11-25T01:36:51.846Z,3.83
2022-11-25T01:39:20.084Z,3.70
2022-11-25T01:41:48.023Z,3.70
2022-11-25T01:44:18.081Z,3.53
2022-11-25T01:46:57.784Z,4.43
2022-11-25T01:49:27.920Z,3.80
2022-11-25T01:51:57.385Z,4.10
2022-11-25T01:54:27.720Z,4.20
2022-11-25T01:56:58.098Z,4.27
2022-11-25T01:59:27.258Z,4.33
2022-11-25T02:01:55.145Z,3.87
2022-11-25T02:04:26.937Z,4.37
2022-11-25T02:06:57.057Z,3.83
2022-11-25T02:09:24.747Z,3.77
2022-11-25T02:11:52.814Z,3.47
2022-11-25T02:14:21.267Z,3.90
2022-11-25T02:16:50.119Z,3.80
2022-11-25T02:19:20.318Z,3.70
2022-11-25T02:21:51.250Z,4.00
2022-11-25T02:24:21.759Z,4.23
2022-11-25T02:26:50.560Z,3.87
2022-11-25T02:29:18.052Z,3.83
2022-11-25T02:31:45.646Z,3.73
2022-11-25T02:34:13.660Z,3.90
2022-11-25T02:36:41.120Z,3.70
2022-11-25T02:39:08.587Z,4.03
2022-11-25T02:41:38.319Z,3.50
2022-11-25T02:44:07.928Z,3.97
2022-11-25T02:46:35.774Z,3.83
2022-11-25T02:49:11.203Z,4.03
2022-11-25T02:51:42.231Z,3.67
2022-11-25T02:54:10.277Z,7.07
2022-11-25T02:56:38.239Z,6.97
2022-11-25T02:59:05.740Z,7.37
2022-11-25T03:01:35.507Z,7.40
2022-11-25T03:04:06.404Z,6.93
2022-11-25T03:06:34.288Z,6.77
2022-11-25T03:09:01.778Z,6.60
2022-11-25T03:11:43.427Z,6.27
2022-11-25T03:14:11.212Z,5.00
2022-11-25T03:16:40.096Z,4.30
2022-11-25T03:19:08.459Z,4.60
2022-11-25T03:21:36.316Z,4.50
2022-11-25T03:24:03.855Z,4.97
2022-11-25T03:26:31.366Z,4.60
2022-11-25T03:28:58.898Z,4.60
2022-11-25T03:31:26.421Z,4.67
2022-11-25T03:33:56.141Z,5.00
2022-11-25T03:36:23.876Z,4.70
2022-11-25T03:38:51.293Z,4.67
2022-11-25T03:41:18.962Z,4.70
2022-11-25T03:43:47.131Z,4.30
2022-11-25T03:46:14.619Z,4.77
2022-11-25T03:48:42.102Z,5.70
2022-11-25T03:51:10.966Z,6.30
2022-11-25T03:53:39.098Z,5.23
2022-11-25T03:56:09.504Z,4.77
2022-11-25T03:58:36.954Z,4.30
2022-11-25T04:01:06.182Z,4.60
2022-11-25T04:03:34.376Z,3.80
2022-11-25T04:06:01.848Z,4.47
2022-11-25T04:08:31.783Z,4.17
2022-11-25T04:10:59.656Z,4.40
2022-11-25T04:13:29.769Z,4.50
2022-11-25T04:15:58.109Z,4.53
2022-11-25T04:18:26.560Z,4.40
2022-11-25T04:20:56.680Z,4.60
2022-11-25T04:23:24.168Z,4.27
2022-11-25T04:25:59.041Z,4.37
2022-11-25T04:28:32.920Z,4.53
2022-11-25T04:31:00.444Z,4.50
2022-11-25T04:33:28.719Z,5.07
2022-11-25T04:35:56.265Z,4.80
2022-11-25T04:38:23.814Z,4.83
2022-11-25T04:40:52.039Z,4.63
2022-11-25T04:43:24.192Z,4.97
2022-11-25T04:46:16.142Z,4.83
2022-11-25T04:48:47.416Z,5.10
2022-11-25T04:51:16.056Z,4.73
2022-11-25T04:53:45.614Z,4.33
2022-11-25T04:56:17.342Z,4.83
2022-11-25T04:59:04.864Z,4.83
2022-11-25T05:01:32.609Z,4.67
2022-11-25T05:04:20.030Z,5.00
2022-11-25T05:06:47.812Z,4.50
2022-11-25T05:09:16.804Z,3.87
2022-11-25T05:11:46.491Z,3.60
2022-11-25T05:14:15.418Z,4.10
2022-11-25T05:16:42.917Z,3.50
2022-11-25T05:19:11.877Z,4.00
2022-11-25T05:21:39.433Z,3.37
2022-11-25T05:24:07.004Z,3.30
2022-11-25T05:26:36.000Z,3.60
2022-11-25T05:29:03.540Z,3.93
2022-11-25T05:31:34.401Z,3.67
2022-11-25T05:34:02.456Z,3.47
2022-11-25T05:36:31.407Z,3.43
2022-11-25T05:38:59.281Z,3.63
2022-11-25T05:41:42.097Z,3.10
2022-11-25T05:44:09.683Z,3.10
2022-11-25T05:46:38.558Z,3.23
2022-11-25T05:49:06.015Z,2.93
2022-11-25T05:51:33.513Z,3.23
2022-11-25T05:54:04.240Z,3.00
2022-11-25T05:56:33.792Z,2.90
2022-11-25T05:59:21.244Z,2.83
2022-11-25T06:02:19.227Z,2.73
2022-11-25T06:04:47.007Z,3.20
2022-11-25T06:07:14.647Z,3.33
2022-11-25T06:09:42.503Z,3.60
2022-11-25T06:12:10.845Z,3.80
2022-11-25T06:14:45.281Z,3.40
2022-11-25T06:17:12.726Z,3.77
2022-11-25T06:19:50.123Z,3.50
2022-11-25T06:22:17.688Z,3.43
2022-11-25T06:24:47.914Z,3.03
2022-11-25T06:27:19.680Z,3.47
2022-11-25T06:29:47.205Z,3.50
2022-11-25T06:32:14.676Z,2.80
2022-11-25T06:34:57.601Z,3.67
2022-11-25T06:37:34.326Z,3.90
2022-11-25T06:40:02.090Z,4.17
2022-11-25T06:42:29.613Z,3.60
2022-11-25T06:44:57.061Z,3.60
2022-11-25T06:47:24.530Z,3.60
2022-11-25T06:49:51.983Z,3.40
2022-11-25T06:52:20.805Z,3.50
2022-11-25T06:54:48.263Z,3.37
2022-11-25T06:57:17.837Z,4.00
2022-11-25T06:59:45.481Z,3.83
2022-11-25T07:02:13.455Z,4.10
2022-11-25T07:04:41.120Z,3.97
2022-11-25T07:07:08.547Z,4.40
2022-11-25T07:09:37.719Z,4.00
2022-11-25T07:12:05.765Z,4.20
2022-11-25T07:14:33.386Z,4.80
2022-11-25T07:17:00.925Z,4.10
2022-11-25T07:19:33.202Z,4.00
2022-11-25T07:22:00.664Z,4.30
2022-11-25T07:24:28.361Z,3.73
2022-11-25T07:26:57.184Z,4.40
2022-11-25T07:32:12.249Z,4.33
2022-11-25T07:34:39.857Z,4.70
2022-11-25T07:37:08.043Z,4.70
2022-11-25T07:39:35.717Z,4.53
2022-11-25T07:42:04.817Z,5.23
2022-11-25T07:44:32.320Z,5.23
2022-11-25T07:47:22.343Z,6.13
2022-11-25T07:49:49.814Z,5.37
2022-11-25T07:52:17.317Z,5.43
2022-11-25T07:54:44.775Z,5.50
2022-11-25T07:57:13.610Z,5.60
2022-11-25T07:59:41.574Z,5.90
2022-11-25T08:02:10.128Z,5.60
2022-11-25T08:04:38.176Z,5.57
2022-11-25T08:07:05.638Z,5.47
2022-11-25T08:09:33.163Z,5.63
2022-11-25T08:12:00.629Z,6.03
2022-11-25T08:14:29.618Z,6.20
2022-11-25T08:16:57.015Z,6.00
2022-11-25T08:19:29.902Z,5.90
2022-11-25T08:21:58.833Z,6.20
2022-11-25T08:24:26.297Z,6.50
2022-11-25T08:26:54.946Z,7.20
2022-11-25T08:29:22.714Z,6.50
2022-11-25T08:31:51.680Z,7.17
2022-11-25T08:34:19.868Z,6.77
2022-11-25T08:36:49.188Z,7.40
2022-11-25T08:39:44.049Z,6.77
2022-11-25T08:42:05.319Z,6.60
2022-11-25T08:44:32.798Z,6.40
2022-11-25T08:47:01.839Z,6.47
2022-11-25T08:49:31.128Z,6.13
2022-11-25T08:52:00.092Z,5.87
2022-11-25T08:54:27.755Z,5.37
2022-11-25T08:56:55.194Z,4.80
2022-11-25T08:59:23.382Z,4.40
2022-11-25T09:01:50.853Z,4.50
2022-11-25T09:04:19.697Z,4.63
2022-11-25T09:06:47.183Z,4.70
2022-11-25T09:09:14.629Z,4.40
2022-11-25T09:11:42.325Z,3.93
2022-11-25T09:14:09.900Z,4.30
2022-11-25T09:16:37.419Z,4.13
2022-11-25T09:19:06.581Z,4.30
2022-11-25T09:21:35.380Z,3.60
2022-11-25T09:24:02.866Z,4.00
2022-11-25T09:26:31.667Z,4.07
2022-11-25T09:28:59.132Z,3.60
2022-11-25T09:31:26.635Z,4.07
2022-11-25T09:33:54.091Z,3.63
2022-11-25T09:36:23.531Z,3.70
2022-11-25T09:38:52.585Z,3.97
2022-11-25T09:41:40.801Z,3.63
2022-11-25T09:44:34.280Z,7.03
2022-11-25T09:47:06.256Z,7.17
2022-11-25T09:49:40.572Z,6.57
2022-11-25T09:52:11.986Z,6.53
2022-11-25T09:54:42.254Z,6.77
2022-11-25T09:57:19.439Z,6.20
2022-11-25T09:59:51.360Z,7.03
2022-11-25T10:02:22.435Z,6.30
2022-11-25T10:04:53.661Z,7.07
2022-11-25T10:07:23.495Z,7.43
2022-11-25T10:09:52.638Z,6.80
2022-11-25T10:12:25.655Z,8.10
2022-11-25T10:14:54.796Z,7.83
2022-11-25T10:17:26.654Z,7.33
2022-11-25T10:19:57.878Z,7.33
2022-11-25T10:22:26.280Z,7.77
2022-11-25T10:24:57.880Z,7.60
2022-11-25T10:27:27.765Z,7.60
2022-11-25T10:30:00.782Z,7.30
2022-11-25T10:32:30.838Z,6.97
2022-11-25T10:35:00.217Z,5.60
2022-11-25T10:37:29.756Z,6.67
2022-11-25T10:39:58.551Z,5.23
2022-11-25T10:42:26.960Z,5.60
2022-11-25T10:44:55.805Z,6.17
2022-11-25T10:47:34.982Z,6.00
2022-11-25T10:50:13.529Z,5.73
2022-11-25T10:52:43.217Z,5.67
2022-11-25T10:55:13.543Z,5.33
2022-11-25T10:57:41.319Z,5.67
2022-11-25T11:00:22.818Z,5.87
2022-11-25T11:02:50.577Z,6.13
2022-11-25T11:05:20.149Z,5.30
2022-11-25T11:07:47.762Z,6.13
2022-11-25T11:10:19.128Z,6.00
2022-11-25T11:12:56.484Z,5.40
2022-11-25T11:15:25.262Z,5.60
2022-11-25T11:17:52.875Z,5.87
2022-11-25T11:20:22.651Z,5.27
2022-11-25T11:22:51.209Z,5.27
2022-11-25T11:25:30.344Z,5.43
2022-11-25T11:27:58.201Z,6.00
2022-11-25T11:30:26.997Z,5.80
2022-11-25T11:32:59.436Z,6.20
2022-11-25T11:35:30.486Z,5.37
2022-11-25T11:37:59.746Z,4.83
2022-11-25T11:40:32.909Z,5.67
2022-11-25T11:43:08.745Z,5.33
2022-11-25T11:45:41.536Z,6.30
2022-11-25T11:48:13.013Z,7.20
2022-11-25T11:50:41.525Z,6.73
2022-11-25T11:53:17.990Z,6.47
2022-11-25T11:56:26.824Z,6.30
2022-11-25T11:58:50.974Z,6.40
2022-11-25T12:01:26.938Z,6.43
2022-11-25T12:03:57.902Z,6.50
2022-11-25T12:06:26.254Z,6.70
2022-11-25T12:08:59.020Z,7.40
2022-11-25T12:11:30.999Z,8.20
2022-11-25T12:14:01.192Z,7.57
2022-11-25T12:16:31.217Z,6.83
2022-11-25T12:19:03.161Z,6.13
2022-11-25T12:21:41.858Z,6.30
2022-11-25T12:24:13.043Z,5.90
2022-11-25T12:26:46.418Z,5.33
2022-11-25T12:29:19.109Z,5.33
2022-11-25T12:31:51.082Z,5.27
2022-11-25T12:34:21.673Z,5.23
2022-11-25T12:36:49.324Z,5.20
2022-11-25T12:39:21.244Z,5.17
2022-11-25T12:41:52.001Z,5.40
2022-11-25T12:44:22.088Z,4.67
2022-11-25T12:46:50.350Z,4.80
2022-11-25T12:49:20.466Z,4.77
2022-11-25T12:52:05.558Z,5.10
2022-11-25T12:54:38.986Z,4.27
2022-11-25T12:57:19.690Z,5.10
2022-11-25T13:00:11.507Z,4.60
2022-11-25T13:02:57.311Z,4.57
2022-11-25T13:05:40.990Z,4.30
2022-11-25T13:08:13.798Z,4.77
2022-11-25T13:10:48.774Z,4.87
2022-11-25T13:13:25.918Z,5.40
2022-11-25T13:15:55.106Z,4.93
2022-11-25T13:18:23.978Z,4.70
2022-11-25T13:20:52.153Z,4.97
2022-11-25T13:23:24.201Z,4.50
2022-11-25T13:25:52.600Z,5.10
2022-11-25T13:28:32.050Z,4.83
2022-11-25T13:31:19.406Z,4.90
2022-11-25T13:34:03.082Z,5.13
2022-11-25T13:36:44.835Z,5.57
2022-11-25T13:39:15.230Z,5.73
2022-11-25T13:41:48.027Z,5.53
2022-11-25T13:44:25.230Z,5.87
2022-11-25T13:46:53.588Z,5.67
2022-11-25T13:49:25.794Z,5.60
2022-11-25T13:51:54.492Z,5.90
2022-11-25T13:54:25.112Z,5.87
2022-11-25T13:56:59.553Z,5.60
2022-11-25T13:59:37.905Z,4.90
2022-11-25T14:02:24.412Z,5.47
2022-11-25T14:04:55.460Z,4.07
2022-11-25T14:07:28.955Z,3.93
2022-11-25T14:10:08.704Z,3.80
2022-11-25T14:12:44.416Z,4.27
2022-11-25T14:15:20.384Z,4.20
2022-11-25T14:18:03.694Z,4.20
2022-11-25T14:20:36.744Z,4.30
2022-11-25T14:23:22.631Z,3.80
2022-11-25T14:25:51.339Z,3.80
2022-11-25T14:28:25.162Z,4.27
2022-11-25T14:30:59.350Z,3.70
2022-11-25T14:33:31.422Z,3.90
2022-11-25T14:36:01.634Z,3.80
2022-11-25T14:38:33.016Z,4.43
2022-11-25T14:41:04.915Z,3.80
2022-11-25T14:43:37.160Z,3.53
2022-11-25T14:46:13.597Z,3.07
2022-11-25T14:48:41.133Z,3.30
2022-11-25T14:51:09.786Z,2.97
2022-11-25T14:53:47.357Z,2.40
2022-11-25T14:56:16.561Z,2.83
2022-11-25T14:58:47.413Z,2.73
2022-11-25T15:01:19.993Z,2.60
2022-11-25T15:03:47.850Z,3.07
2022-11-25T15:06:15.510Z,2.80
2022-11-25T15:08:43.832Z,2.50
2022-11-25T15:11:13.974Z,2.80
2022-11-25T15:13:42.828Z,2.47
2022-11-25T15:16:13.521Z,2.60
2022-11-25T15:18:48.474Z,2.90
2022-11-25T15:21:16.909Z,3.40
2022-11-25T15:23:44.456Z,3.00
2022-11-25T15:26:17.693Z,2.90
2022-11-25T15:28:45.166Z,2.90
2022-11-25T15:31:18.744Z,2.83
2022-11-25T15:33:48.151Z,3.30
2022-11-25T15:36:15.629Z,3.17
2022-11-25T15:38:44.031Z,3.47
2022-11-25T15:41:18.218Z,3.03
2022-11-25T15:43:46.773Z,3.20
2022-11-25T15:46:14.463Z,3.33
2022-11-25T15:48:45.142Z,2.93
2022-11-25T15:51:21.398Z,2.70
2022-11-25T15:53:51.864Z,2.87
2022-11-25T15:56:21.782Z,2.40
2022-11-25T15:58:49.275Z,3.10
2022-11-25T16:01:22.098Z,3.30
2022-11-25T16:03:50.370Z,3.20
2022-11-25T16:06:22.990Z,2.93
2022-11-25T16:08:54.162Z,3.20
2022-11-25T16:11:22.890Z,3.13
2022-11-25T16:13:50.922Z,3.53
2022-11-25T16:16:20.525Z,3.10
2022-11-25T16:19:04.804Z,3.70
2022-11-25T16:21:41.114Z,4.00
2022-11-25T16:24:13.085Z,3.40
2022-11-25T16:26:41.514Z,3.60
2022-11-25T16:29:14.586Z,3.17
2022-11-25T16:31:42.226Z,3.47
2022-11-25T16:34:13.693Z,2.80
2022-11-25T16:36:42.615Z,2.90
2022-11-25T16:39:10.343Z,3.00
2022-11-25T16:41:37.946Z,2.77
2022-11-25T16:44:08.937Z,3.03
2022-11-25T16:46:36.646Z,3.07
2022-11-25T16:49:05.270Z,2.93
2022-11-25T16:51:32.729Z,3.23
2022-11-25T16:54:01.823Z,3.40
2022-11-25T16:56:29.605Z,3.43
2022-11-25T16:58:57.976Z,3.30
2022-11-25T17:01:28.533Z,3.07
2022-11-25T17:03:56.089Z,3.73
2022-11-25T17:06:24.459Z,3.30
2022-11-25T17:08:52.481Z,3.90
2022-11-25T17:11:22.778Z,3.47
2022-11-25T17:13:51.345Z,3.77
2022-11-25T17:16:19.901Z,4.10
2022-11-25T17:18:47.669Z,5.83
2022-11-25T17:21:15.687Z,6.80
2022-11-25T17:23:43.223Z,6.10
2022-11-25T17:26:15.593Z,6.00
2022-11-25T17:28:44.898Z,5.30
2022-11-25T17:31:12.581Z,4.50
2022-11-25T17:33:42.754Z,3.80
2022-11-25T17:36:11.826Z,3.50
2022-11-25T17:38:41.197Z,3.90
2022-11-25T17:41:11.653Z,7.07
2022-11-25T17:43:39.121Z,15.90
2022-11-25T17:46:09.957Z,18.47
2022-11-25T17:48:37.970Z,18.47
2022-11-25T17:51:07.556Z,15.23
2022-11-25T17:53:37.751Z,13.03
2022-11-25T17:56:11.075Z,12.80
2022-11-25T17:58:38.538Z,19.23
2022-11-25T18:01:06.168Z,20.17
2022-11-25T18:03:35.982Z,22.07
2022-11-25T18:06:04.479Z,20.67
2022-11-25T18:08:31.934Z,23.00
2022-11-25T18:10:59.584Z,24.73
2022-11-25T18:13:27.088Z,22.20
2022-11-25T18:15:55.867Z,23.77
2022-11-25T18:18:25.112Z,21.60
2022-11-25T18:20:53.947Z,23.87
2022-11-25T18:23:21.371Z,18.53
2022-11-25T18:25:48.869Z,19.20
2022-11-25T18:28:18.068Z,19.60
2022-11-25T18:30:45.716Z,14.60
2022-11-25T18:33:14.479Z,9.20
2022-11-25T18:35:42.402Z,4.87
2022-11-25T18:38:12.223Z,5.10
2022-11-25T18:40:42.406Z,4.70
2022-11-25T18:43:13.606Z,4.87
2022-11-25T18:45:41.274Z,4.33
2022-11-25T18:48:14.008Z,3.97
2022-11-25T18:50:41.497Z,3.73
2022-11-25T18:53:09.030Z,3.60
2022-11-25T18:55:37.951Z,4.60
2022-11-25T18:58:10.475Z,4.60
2022-11-25T19:00:37.938Z,4.83
2022-11-25T19:03:05.418Z,5.10
2022-11-25T19:05:33.880Z,5.17
2022-11-25T19:08:01.882Z,5.77
2022-11-25T19:10:31.399Z,6.47
2022-11-25T19:13:01.849Z,6.40
2022-11-25T19:15:29.320Z,6.13
2022-11-25T19:17:58.513Z,6.00
2022-11-25T19:20:26.336Z,4.90
2022-11-25T19:22:57.891Z,5.70
2022-11-25T19:25:28.012Z,5.47
2022-11-25T19:27:57.442Z,5.90
2022-11-25T19:30:26.956Z,5.83
2022-11-25T19:32:57.349Z,6.37
2022-11-25T19:35:27.545Z,7.30
2022-11-25T19:37:55.009Z,6.80
2022-11-25T19:40:22.700Z,7.03
2022-11-25T19:42:50.140Z,6.67
2022-11-25T19:45:18.554Z,8.00
2022-11-25T19:47:48.608Z,9.47
2022-11-25T19:50:20.082Z,9.80
2022-11-25T19:52:47.793Z,8.57
2022-11-25T19:55:16.219Z,6.50
2022-11-25T19:57:43.781Z,6.60
2022-11-25T20:00:12.245Z,7.13
2022-11-25T20:02:40.231Z,5.97
2022-11-25T20:05:09.817Z,6.57
2022-11-25T20:07:37.523Z,6.63
2022-11-25T20:10:15.551Z,6.53
2022-11-25T20:12:43.335Z,6.77
2022-11-25T20:15:11.334Z,6.80
2022-11-25T20:17:40.165Z,6.90
2022-11-25T20:20:13.555Z,6.70
2022-11-25T20:22:43.843Z,6.40
2022-11-25T20:25:14.648Z,6.63
2022-11-25T20:27:42.457Z,6.07
2022-11-25T20:30:15.249Z,6.20
2022-11-25T20:32:42.905Z,5.80
2022-11-25T20:35:12.193Z,6.73
2022-11-25T20:37:50.955Z,5.73
2022-11-25T20:40:19.926Z,6.10
2022-11-25T20:42:47.729Z,6.10
2022-11-25T20:45:15.914Z,6.13
2022-11-25T20:47:43.380Z,5.67
2022-11-25T20:50:12.978Z,6.27
2022-11-25T20:52:40.855Z,6.20
2022-11-25T20:55:15.107Z,6.10
2022-11-25T20:57:42.605Z,5.87
2022-11-25T21:00:14.421Z,5.93
2022-11-25T21:02:41.941Z,5.87
2022-11-25T21:05:09.692Z,6.00
2022-11-25T21:07:38.572Z,5.40
2022-11-25T21:10:17.234Z,5.80
2022-11-25T21:12:44.700Z,5.70
2022-11-25T21:15:14.182Z,6.27
2022-11-25T21:17:41.636Z,5.73
2022-11-25T21:20:09.672Z,6.67
2022-11-25T21:22:41.359Z,6.30
2022-11-25T21:25:11.403Z,6.67
2022-11-25T21:27:38.993Z,7.10
2022-11-25T21:30:07.126Z,6.57
2022-11-25T21:32:35.201Z,7.20
2022-11-25T21:35:03.945Z,6.93
2022-11-25T21:37:32.191Z,6.53
2022-11-25T21:40:02.291Z,6.83
2022-11-25T21:42:30.469Z,6.67
2022-11-25T21:44:58.011Z,6.23
2022-11-25T21:47:26.259Z,6.20
2022-11-25T21:49:53.770Z,6.70
2022-11-25T21:52:21.241Z,6.07
2022-11-25T21:54:48.721Z,6.67
2022-11-25T21:57:18.266Z,5.73
2022-11-25T21:59:46.055Z,6.10
2022-11-25T22:02:18.539Z,6.40
2022-11-25T22:04:46.022Z,6.30
2022-11-25T22:07:13.543Z,6.67
2022-11-25T22:09:41.435Z,6.33
2022-11-25T22:12:20.983Z,7.30
2022-11-25T22:14:49.824Z,6.43
2022-11-25T22:17:18.906Z,6.50
2022-11-25T22:19:46.366Z,6.80
2022-11-25T22:22:14.206Z,6.73
2022-11-25T22:24:41.898Z,6.73
2022-11-25T22:27:12.162Z,6.80
2022-11-25T22:29:39.650Z,5.90
2022-11-25T22:32:12.831Z,5.57
2022-11-25T22:34:40.692Z,5.97
2022-11-25T22:37:12.251Z,6.40
2022-11-25T22:39:39.678Z,5.57
2022-11-25T22:42:07.787Z,6.93
2022-11-25T22:44:36.450Z,6.23
2022-11-25T22:47:04.213Z,6.17
2022-11-25T22:49:35.484Z,6.10
2022-11-25T22:52:03.025Z,6.33
2022-11-25T22:54:30.522Z,6.33
2022-11-25T22:56:58.157Z,6.50
2022-11-25T22:59:25.626Z,6.43
2022-11-25T23:01:53.158Z,5.73
2022-11-25T23:04:21.353Z,6.10
2022-11-25T23:06:50.152Z,5.90
2022-11-25T23:09:18.775Z,6.43
2022-11-25T23:11:46.746Z,6.40
2022-11-25T23:14:14.233Z,6.03
2022-11-25T23:16:42.735Z,6.53
2022-11-25T23:19:13.119Z,5.90
2022-11-25T23:21:40.567Z,6.23
2022-11-25T23:24:11.836Z,7.70
2022-11-25T23:26:39.357Z,6.57
2022-11-25T23:29:06.818Z,6.07
2022-11-25T23:31:35.249Z,5.80
2022-11-25T23:34:02.848Z,6.03
2022-11-25T23:36:31.933Z,5.47
2022-11-25T23:39:00.366Z,6.07
2022-11-25T23:41:30.320Z,5.80
2022-11-25T23:43:58.038Z,5.87
2022-11-25T23:46:27.236Z,5.43
2022-11-25T23:48:56.766Z,6.13
2022-11-25T23:51:25.031Z,5.80
2022-11-25T23:53:52.762Z,6.23
2022-11-25T23:56:20.199Z,5.60
2022-11-25T23:58:49.507Z,5.70
